createdAt,value
2016-06-16T00:00:59.354Z,99.99
2016-06-16T00:01:59.341Z,99.99
2016-06-16T00:02:59.328Z,99.99
2016-06-16T00:03:59.330Z,99.99
2016-06-16T00:04:59.318Z,99.99
2016-06-16T00:05:59.290Z,99.99
2016-06-16T00:06:59.293Z,99.99
2016-06-16T00:07:59.250Z,99.99
2016-06-16T00:08:59.299Z,99.99
2016-06-16T00:09:59.224Z,99.99
2016-06-16T00:10:59.384Z,99.99
2016-06-16T00:11:59.199Z,99.99
2016-06-16T00:12:59.203Z,99.99
2016-06-16T00:13:59.174Z,99.99
2016-06-16T00:14:59.161Z,99.99
2016-06-16T00:15:59.134Z,99.99
2016-06-16T00:16:59.137Z,99.99
2016-06-16T00:17:59.123Z,99.99
2016-06-16T00:18:59.112Z,99.99
2016-06-16T00:19:59.115Z,99.87
2016-06-16T00:20:59.071Z,99.99
2016-06-16T00:21:59.058Z,98.91
2016-06-16T00:22:59.046Z,99.01
2016-06-16T00:23:59.049Z,99.2
2016-06-16T00:24:59.098Z,99.68
2016-06-16T00:25:59.351Z,99.99
2016-06-16T00:26:59.011Z,99.99
2016-06-16T00:27:58.998Z,99.99
2016-06-16T00:28:59.017Z,99.99
2016-06-16T00:29:58.943Z,99.99
2016-06-16T00:30:58.946Z,99.99
2016-06-16T00:31:58.933Z,99.99
2016-06-16T00:32:58.919Z,99.99
2016-06-16T00:33:58.908Z,99.99
2016-06-16T00:34:58.879Z,99.99
2016-06-16T00:35:58.882Z,99.99
2016-06-16T00:36:58.854Z,99.99
2016-06-16T00:37:58.842Z,99.99
2016-06-16T00:38:58.829Z,99.99
2016-06-16T00:39:58.660Z,99.99
2016-06-16T00:40:58.805Z,99.99
2016-06-16T00:41:58.791Z,99.99
2016-06-16T00:42:58.794Z,99.99
2016-06-16T00:43:58.767Z,99.99
2016-06-16T00:44:58.754Z,99.99
2016-06-16T00:45:58.725Z,99.99
2016-06-16T00:46:58.745Z,99.99
2016-06-16T00:47:58.701Z,99.99
2016-06-16T00:48:58.688Z,99.99
2016-06-16T00:49:58.675Z,99.99
2016-06-16T00:50:58.678Z,99.99
2016-06-16T00:51:58.650Z,99.99
2016-06-16T00:52:58.653Z,99.99
2016-06-16T00:53:58.625Z,99.99
2016-06-16T00:54:58.613Z,99.99
2016-06-16T00:55:58.975Z,99.99
2016-06-16T00:56:58.588Z,99.99
2016-06-16T00:57:58.591Z,99.99
2016-06-16T00:58:58.547Z,99.99
2016-06-16T00:59:58.534Z,99.99
2016-06-16T01:00:58.522Z,99.99
2016-06-16T01:01:58.509Z,99.99
2016-06-16T01:02:58.481Z,99.99
2016-06-16T01:03:58.484Z,99.99
2016-06-16T01:04:58.471Z,99.99
2016-06-16T01:05:58.474Z,99.99
2016-06-16T01:06:58.443Z,99.99
2016-06-16T01:07:58.415Z,99.99
2016-06-16T01:08:58.435Z,99.99
2016-06-16T01:09:58.249Z,99.99
2016-06-16T01:10:58.253Z,99.99
2016-06-16T01:11:58.428Z,99.99
2016-06-16T01:12:58.384Z,99.99
2016-06-16T01:13:58.402Z,99.99
2016-06-16T01:14:58.328Z,99.99
2016-06-16T01:15:58.299Z,99.99
2016-06-16T01:16:58.302Z,99.99
2016-06-16T01:17:58.290Z,99.99
2016-06-16T01:18:58.261Z,99.99
2016-06-16T01:19:58.264Z,99.99
2016-06-16T01:20:58.237Z,99.99
2016-06-16T01:21:58.239Z,99.99
2016-06-16T01:22:58.211Z,99.99
2016-06-16T01:23:58.198Z,99.99
2016-06-16T01:24:58.186Z,99.99
2016-06-16T01:25:58.174Z,99.99
2016-06-16T01:26:58.161Z,99.99
2016-06-16T01:27:57.993Z,99.99
2016-06-16T01:28:58.135Z,99.99
2016-06-16T01:29:58.124Z,99.99
2016-06-16T01:30:58.111Z,99.99
2016-06-16T01:31:58.098Z,99.99
2016-06-16T01:32:58.070Z,99.99
2016-06-16T01:33:58.057Z,99.99
2016-06-16T01:34:58.045Z,99.99
2016-06-16T01:35:58.032Z,99.99
2016-06-16T01:36:58.020Z,99.99
2016-06-16T01:37:57.991Z,99.99
2016-06-16T01:38:57.980Z,99.99
2016-06-16T01:39:57.982Z,99.99
2016-06-16T01:40:57.969Z,99.99
2016-06-16T01:41:57.942Z,99.99
2016-06-16T01:42:57.929Z,99.99
2016-06-16T01:43:57.932Z,99.99
2016-06-16T01:44:57.920Z,99.99
2016-06-16T01:45:57.954Z,99.99
2016-06-16T01:46:57.879Z,99.99
2016-06-16T01:47:57.866Z,99.99
2016-06-16T01:48:57.853Z,99.99
2016-06-16T01:49:57.857Z,99.99
2016-06-16T01:50:57.813Z,99.99
2016-06-16T01:51:57.816Z,99.99
2016-06-16T01:52:57.788Z,99.99
2016-06-16T01:53:57.776Z,99.99
2016-06-16T01:54:57.762Z,99.99
2016-06-16T01:55:58.109Z,99.99
2016-06-16T01:56:57.738Z,99.99
2016-06-16T01:57:57.788Z,99.99
2016-06-16T01:58:57.697Z,99.99
2016-06-16T01:59:57.700Z,99.99
2016-06-16T02:00:57.672Z,99.99
2016-06-16T02:01:57.675Z,99.99
2016-06-16T02:02:57.647Z,99.99
2016-06-16T02:03:57.634Z,99.99
2016-06-16T02:04:57.622Z,99.99
2016-06-16T02:05:57.609Z,99.99
2016-06-16T02:06:57.581Z,99.99
2016-06-16T02:07:57.615Z,99.99
2016-06-16T02:08:57.556Z,99.99
2016-06-16T02:09:57.543Z,99.99
2016-06-16T02:10:57.546Z,99.99
2016-06-16T02:11:57.581Z,99.99
2016-06-16T02:12:57.521Z,99.99
2016-06-16T02:13:57.540Z,99.99
2016-06-16T02:14:57.480Z,99.99
2016-06-16T02:15:57.452Z,99.99
2016-06-16T02:16:57.440Z,99.99
2016-06-16T02:17:57.442Z,99.99
2016-06-16T02:18:57.414Z,99.99
2016-06-16T02:19:57.403Z,99.99
2016-06-16T02:20:57.390Z,99.99
2016-06-16T02:21:57.376Z,99.99
2016-06-16T02:22:57.365Z,99.99
2016-06-16T02:23:57.352Z,99.99
2016-06-16T02:24:57.183Z,99.99
2016-06-16T02:25:57.327Z,99.99
2016-06-16T02:26:57.314Z,99.99
2016-06-16T02:27:57.286Z,99.99
2016-06-16T02:28:57.274Z,99.99
2016-06-16T02:29:57.261Z,99.99
2016-06-16T02:30:57.248Z,99.99
2016-06-16T02:31:57.314Z,99.99
2016-06-16T02:32:57.208Z,99.99
2016-06-16T02:33:57.226Z,99.99
2016-06-16T02:34:57.183Z,99.99
2016-06-16T02:35:57.186Z,99.99
2016-06-16T02:36:57.173Z,99.99
2016-06-16T02:37:57.145Z,99.99
2016-06-16T02:38:57.132Z,99.99
2016-06-16T02:39:57.104Z,99.99
2016-06-16T02:40:57.373Z,99.99
2016-06-16T02:41:57.126Z,99.99
2016-06-16T02:42:57.066Z,99.99
2016-06-16T02:43:57.054Z,99.99
2016-06-16T02:44:57.042Z,99.99
2016-06-16T02:45:57.029Z,99.99
2016-06-16T02:46:57.000Z,99.99
2016-06-16T02:47:56.988Z,99.99
2016-06-16T02:48:56.992Z,99.99
2016-06-16T02:49:56.979Z,99.99
2016-06-16T02:50:56.950Z,99.99
2016-06-16T02:51:56.954Z,99.99
2016-06-16T02:52:56.941Z,99.99
2016-06-16T02:53:56.913Z,99.99
2016-06-16T02:54:56.900Z,99.99
2016-06-16T02:55:56.873Z,99.99
2016-06-16T02:56:56.859Z,99.99
2016-06-16T02:57:56.847Z,99.99
2016-06-16T02:58:56.835Z,99.99
2016-06-16T02:59:56.838Z,99.99
2016-06-16T03:00:56.810Z,99.99
2016-06-16T03:01:56.797Z,99.99
2016-06-16T03:02:56.785Z,99.99
2016-06-16T03:03:56.772Z,99.99
2016-06-16T03:04:56.759Z,99.99
2016-06-16T03:05:56.747Z,99.99
2016-06-16T03:06:56.718Z,99.99
2016-06-16T03:07:56.707Z,99.99
2016-06-16T03:08:56.693Z,99.99
2016-06-16T03:09:56.665Z,99.99
2016-06-16T03:10:56.668Z,99.99
2016-06-16T03:11:56.516Z,99.99
2016-06-16T03:12:56.628Z,99.99
2016-06-16T03:13:56.599Z,99.99
2016-06-16T03:14:56.602Z,99.99
2016-06-16T03:15:56.590Z,99.99
2016-06-16T03:16:56.578Z,99.99
2016-06-16T03:17:56.565Z,99.99
2016-06-16T03:18:56.537Z,99.99
2016-06-16T03:19:56.540Z,99.99
2016-06-16T03:20:56.511Z,99.99
2016-06-16T03:21:56.499Z,99.99
2016-06-16T03:22:56.486Z,99.99
2016-06-16T03:23:56.458Z,99.99
2016-06-16T03:24:56.446Z,99.99
2016-06-16T03:25:56.448Z,99.99
2016-06-16T03:26:56.279Z,99.99
2016-06-16T03:27:56.408Z,99.99
2016-06-16T03:28:56.396Z,99.99
2016-06-16T03:29:56.382Z,99.99
2016-06-16T03:30:56.355Z,99.99
2016-06-16T03:31:56.342Z,99.99
2016-06-16T03:32:56.345Z,99.99
2016-06-16T03:33:56.317Z,99.99
2016-06-16T03:34:56.304Z,99.99
2016-06-16T03:35:56.292Z,99.99
2016-06-16T03:36:56.280Z,99.99
2016-06-16T03:37:56.267Z,99.99
2016-06-16T03:38:56.254Z,99.99
2016-06-16T03:39:56.226Z,99.99
2016-06-16T03:40:56.213Z,99.99
2016-06-16T03:41:56.280Z,99.99
2016-06-16T03:42:56.078Z,99.99
2016-06-16T03:43:56.160Z,99.99
2016-06-16T03:44:56.148Z,99.99
2016-06-16T03:45:56.134Z,99.99
2016-06-16T03:46:56.107Z,99.99
2016-06-16T03:47:56.110Z,99.99
2016-06-16T03:48:56.097Z,99.99
2016-06-16T03:49:56.085Z,99.99
2016-06-16T03:50:56.058Z,99.99
2016-06-16T03:51:56.044Z,99.99
2016-06-16T03:52:56.031Z,99.99
2016-06-16T03:53:56.019Z,99.99
2016-06-16T03:54:56.007Z,99.99
2016-06-16T03:55:55.993Z,99.99
2016-06-16T03:56:55.966Z,99.99
2016-06-16T03:57:55.954Z,99.99
2016-06-16T03:58:56.003Z,99.99
2016-06-16T03:59:55.928Z,99.99
2016-06-16T04:00:55.916Z,99.99
2016-06-16T04:01:55.903Z,99.99
2016-06-16T04:02:55.890Z,99.99
2016-06-16T04:03:55.879Z,99.99
2016-06-16T04:04:55.865Z,99.99
2016-06-16T04:05:55.853Z,99.99
2016-06-16T04:06:55.824Z,99.99
2016-06-16T04:07:55.797Z,99.99
2016-06-16T04:08:55.783Z,99.99
2016-06-16T04:09:55.771Z,99.99
2016-06-16T04:10:55.822Z,99.99
2016-06-16T04:11:55.762Z,99.99
2016-06-16T04:12:55.734Z,99.99
2016-06-16T04:13:55.705Z,99.99
2016-06-16T04:14:55.709Z,99.99
2016-06-16T04:15:55.712Z,99.99
2016-06-16T04:16:55.702Z,99.99
2016-06-16T04:17:55.714Z,99.99
2016-06-16T04:18:55.756Z,99.99
2016-06-16T04:19:55.768Z,99.99
2016-06-16T04:20:55.795Z,99.99
2016-06-16T04:21:55.812Z,99.99
2016-06-16T04:22:55.813Z,99.99
2016-06-16T04:23:55.814Z,99.99
2016-06-16T04:24:55.817Z,99.99
2016-06-16T04:25:55.803Z,99.99
2016-06-16T04:26:56.206Z,99.99
2016-06-16T04:27:55.792Z,99.99
2016-06-16T04:28:55.785Z,99.99
2016-06-16T04:29:55.777Z,99.99
2016-06-16T04:30:55.769Z,99.99
2016-06-16T04:31:55.761Z,99.99
2016-06-16T04:32:55.922Z,99.99
2016-06-16T04:33:55.880Z,99.99
2016-06-16T04:34:55.729Z,99.99
2016-06-16T04:35:55.702Z,99.99
2016-06-16T04:36:55.691Z,99.99
2016-06-16T04:37:55.679Z,99.99
2016-06-16T04:38:55.715Z,99.99
2016-06-16T04:39:55.641Z,99.99
2016-06-16T04:40:55.645Z,99.99
2016-06-16T04:41:55.929Z,99.99
2016-06-16T04:42:55.605Z,99.99
2016-06-16T04:43:55.592Z,99.99
2016-06-16T04:44:55.596Z,99.99
2016-06-16T04:45:55.568Z,99.99
2016-06-16T04:46:55.571Z,99.99
2016-06-16T04:47:55.527Z,99.99
2016-06-16T04:48:55.515Z,99.99
2016-06-16T04:49:55.517Z,99.99
2016-06-16T04:50:55.490Z,99.99
2016-06-16T04:51:55.477Z,99.99
2016-06-16T04:52:55.465Z,99.99
2016-06-16T04:53:55.452Z,99.99
2016-06-16T04:54:55.440Z,99.99
2016-06-16T04:55:55.411Z,99.99
2016-06-16T04:56:55.414Z,99.99
2016-06-16T04:57:55.387Z,99.99
2016-06-16T04:58:55.373Z,99.99
2016-06-16T04:59:55.376Z,99.99
2016-06-16T05:00:55.348Z,99.99
2016-06-16T05:01:55.320Z,99.99
2016-06-16T05:02:55.323Z,99.99
2016-06-16T05:03:55.311Z,99.99
2016-06-16T05:04:55.283Z,99.99
2016-06-16T05:05:55.285Z,99.99
2016-06-16T05:06:55.273Z,99.99
2016-06-16T05:07:55.245Z,99.99
2016-06-16T05:08:55.233Z,99.99
2016-06-16T05:09:55.220Z,99.99
2016-06-16T05:10:55.035Z,99.99
2016-06-16T05:11:55.788Z,99.99
2016-06-16T05:12:55.167Z,99.99
2016-06-16T05:13:55.186Z,99.99
2016-06-16T05:14:55.142Z,99.99
2016-06-16T05:15:55.130Z,99.99
2016-06-16T05:16:55.116Z,99.99
2016-06-16T05:17:55.104Z,99.99
2016-06-16T05:18:55.092Z,99.99
2016-06-16T05:19:55.110Z,99.99
2016-06-16T05:20:55.066Z,99.99
2016-06-16T05:21:55.038Z,99.99
2016-06-16T05:22:55.041Z,99.99
2016-06-16T05:23:55.029Z,99.99
2016-06-16T05:24:55.000Z,99.99
2016-06-16T05:25:54.988Z,99.99
2016-06-16T05:26:55.835Z,99.99
2016-06-16T05:27:54.948Z,99.99
2016-06-16T05:28:54.951Z,99.99
2016-06-16T05:29:54.937Z,99.99
2016-06-16T05:30:54.925Z,99.99
2016-06-16T05:31:54.913Z,99.99
2016-06-16T05:32:54.744Z,99.99
2016-06-16T05:33:54.872Z,99.99
2016-06-16T05:34:54.859Z,99.99
2016-06-16T05:35:54.862Z,99.99
2016-06-16T05:36:54.834Z,99.99
2016-06-16T05:37:54.822Z,99.99
2016-06-16T05:38:54.825Z,99.99
2016-06-16T05:39:54.796Z,99.99
2016-06-16T05:40:54.784Z,99.99
2016-06-16T05:41:54.787Z,99.99
2016-06-16T05:42:54.759Z,99.99
2016-06-16T05:43:54.747Z,99.99
2016-06-16T05:44:54.734Z,99.99
2016-06-16T05:45:54.706Z,99.63
2016-06-16T05:46:54.709Z,99.39
2016-06-16T05:47:54.555Z,98.91
2016-06-16T05:48:54.668Z,98.48
2016-06-16T05:49:54.671Z,97.95
2016-06-16T05:50:54.643Z,98.14
2016-06-16T05:51:54.630Z,97.76
2016-06-16T05:52:54.618Z,97.66
2016-06-16T05:53:54.605Z,97.47
2016-06-16T05:54:54.593Z,97.56
2016-06-16T05:55:54.581Z,97.76
2016-06-16T05:56:55.287Z,96.99
2016-06-16T05:57:54.555Z,97.28
2016-06-16T05:58:54.527Z,97.14
2016-06-16T05:59:54.514Z,95.98
2016-06-16T06:00:54.501Z,96.37
2016-06-16T06:01:54.505Z,95.6
2016-06-16T06:02:54.477Z,96.08
2016-06-16T06:03:54.480Z,96.08
2016-06-16T06:04:54.451Z,95.7
2016-06-16T06:05:54.439Z,95.31
2016-06-16T06:06:54.426Z,95.6
2016-06-16T06:07:54.415Z,95.79
2016-06-16T06:08:54.402Z,95.89
2016-06-16T06:09:54.389Z,95.98
2016-06-16T06:10:54.361Z,96.08
2016-06-16T06:11:54.208Z,95.79
2016-06-16T06:12:54.350Z,96.18
2016-06-16T06:13:54.338Z,95.89
2016-06-16T06:14:54.326Z,95.6
2016-06-16T06:15:54.329Z,95.89
2016-06-16T06:16:54.301Z,95.03
2016-06-16T06:17:54.288Z,94.64
2016-06-16T06:18:54.260Z,94.26
2016-06-16T06:19:54.264Z,95.41
2016-06-16T06:20:54.235Z,95.41
2016-06-16T06:21:54.239Z,95.79
2016-06-16T06:22:54.241Z,96.32
2016-06-16T06:23:54.198Z,96.66
2016-06-16T06:24:54.184Z,95.89
2016-06-16T06:25:54.173Z,95.31
2016-06-16T06:26:54.176Z,94.93
2016-06-16T06:27:54.163Z,94.45
2016-06-16T06:28:53.979Z,94.98
2016-06-16T06:29:54.122Z,94.78
2016-06-16T06:30:54.125Z,93.92
2016-06-16T06:31:54.097Z,94.59
2016-06-16T06:32:54.084Z,94.4
2016-06-16T06:33:54.087Z,93.96
2016-06-16T06:34:54.060Z,93.1
2016-06-16T06:35:54.063Z,92.91
2016-06-16T06:36:54.035Z,92.72
2016-06-16T06:37:54.037Z,93.19
2016-06-16T06:38:54.009Z,93.01
2016-06-16T06:39:53.997Z,92.05
2016-06-16T06:40:54.000Z,92.05
2016-06-16T06:41:54.222Z,92.81
2016-06-16T06:42:53.959Z,91.95
2016-06-16T06:43:53.962Z,91.75
2016-06-16T06:44:53.793Z,91.56
2016-06-16T06:45:53.921Z,92.29
2016-06-16T06:46:53.924Z,91.22
2016-06-16T06:47:53.912Z,91.32
2016-06-16T06:48:53.728Z,91.22
2016-06-16T06:49:53.872Z,90.65
2016-06-16T06:50:53.875Z,90.45
2016-06-16T06:51:53.845Z,89.92
2016-06-16T06:52:53.849Z,89.15
2016-06-16T06:53:53.820Z,89.06
2016-06-16T06:54:53.824Z,89.35
2016-06-16T06:55:53.796Z,88.33
2016-06-16T06:56:53.627Z,88.19
2016-06-16T06:57:53.786Z,88.29
2016-06-16T06:58:53.758Z,88.87
2016-06-16T06:59:53.761Z,88.57
2016-06-16T07:00:53.748Z,87.46
2016-06-16T07:01:53.751Z,87.37
2016-06-16T07:02:53.787Z,87.56
2016-06-16T07:03:53.712Z,87.85
2016-06-16T07:04:53.729Z,89.15
2016-06-16T07:05:53.529Z,89.59
2016-06-16T07:06:53.674Z,89.98
2016-06-16T07:07:53.661Z,89.69
2016-06-16T07:08:53.648Z,89.69
2016-06-16T07:09:53.480Z,89.98
2016-06-16T07:10:53.623Z,89.69
2016-06-16T07:11:53.454Z,88.67
2016-06-16T07:12:53.598Z,89.21
2016-06-16T07:13:53.601Z,89.59
2016-06-16T07:14:53.573Z,89.88
2016-06-16T07:15:53.561Z,89.83
2016-06-16T07:16:53.564Z,89.88
2016-06-16T07:17:53.551Z,88.39
2016-06-16T07:18:53.522Z,88.39
2016-06-16T07:19:53.370Z,88.96
2016-06-16T07:20:53.498Z,88.33
2016-06-16T07:21:53.501Z,87.95
2016-06-16T07:22:53.488Z,86.35
2016-06-16T07:23:53.460Z,85.3
2016-06-16T07:24:53.464Z,83.85
2016-06-16T07:25:53.450Z,84.09
2016-06-16T07:26:53.719Z,84.05
2016-06-16T07:27:53.425Z,84.09
2016-06-16T07:28:53.413Z,84.91
2016-06-16T07:29:53.401Z,84.05
2016-06-16T07:30:53.387Z,83.8
2016-06-16T07:31:53.375Z,83.22
2016-06-16T07:32:53.378Z,83.51
2016-06-16T07:33:53.351Z,83.31
2016-06-16T07:48:37.583Z,84.47
2016-06-16T07:48:37.630Z,81.29
2016-06-16T07:48:50.802Z,81.12
2016-06-16T07:49:50.789Z,80.26
2016-06-16T07:50:50.792Z,80
2016-06-16T07:51:50.780Z,79.49
2016-06-16T07:52:50.752Z,80.54
2016-06-16T07:53:50.723Z,78.81
2016-06-16T07:54:50.587Z,78.75
2016-06-16T07:55:50.715Z,79.04
2016-06-16T07:56:50.733Z,79.04
2016-06-16T07:57:50.704Z,78.66
2016-06-16T07:58:50.707Z,79.97
2016-06-16T07:59:50.680Z,81.02
2016-06-16T08:00:50.683Z,79.68
2016-06-16T08:01:50.655Z,78.52
2016-06-16T08:02:50.689Z,77.4
2016-06-16T08:03:50.645Z,76.72
2016-06-16T08:04:50.648Z,77.98
2016-06-16T08:05:50.635Z,78.96
2016-06-16T08:06:50.639Z,78.58
2016-06-16T08:07:50.611Z,78
2016-06-16T08:08:50.614Z,77.9
2016-06-16T08:09:50.586Z,77.33
2016-06-16T08:10:50.651Z,77.17
2016-06-16T08:11:50.575Z,77.01
2016-06-16T08:12:50.548Z,76.72
2016-06-16T08:13:50.551Z,76.63
2016-06-16T08:14:50.553Z,76.92
2016-06-16T08:15:50.526Z,77.55
2016-06-16T08:16:50.529Z,76.88
2016-06-16T08:17:50.516Z,76.2
2016-06-16T08:18:50.489Z,76.63
2016-06-16T08:19:50.506Z,77.05
2016-06-16T08:20:50.338Z,76.15
2016-06-16T08:21:50.482Z,77.3
2016-06-16T08:22:50.469Z,76.63
2016-06-16T08:23:50.473Z,76.47
2016-06-16T08:24:50.459Z,76.37
2016-06-16T08:25:50.446Z,77.11
2016-06-16T08:26:50.277Z,76.92
2016-06-16T08:27:50.406Z,74.79
2016-06-16T08:28:50.409Z,74.73
2016-06-16T08:29:50.397Z,73.22
2016-06-16T08:30:50.400Z,73.22
2016-06-16T08:31:50.387Z,72.78
2016-06-16T08:32:50.359Z,72.49
2016-06-16T08:33:50.362Z,71.91
2016-06-16T08:34:50.350Z,72.26
2016-06-16T08:35:50.353Z,72.36
2016-06-16T08:36:50.341Z,72.06
2016-06-16T08:37:50.171Z,71.68
2016-06-16T08:38:50.315Z,70.78
2016-06-16T08:39:50.318Z,70.88
2016-06-16T08:40:50.306Z,70.01
2016-06-16T08:41:50.309Z,69.92
2016-06-16T08:42:50.282Z,70.78
2016-06-16T08:43:50.285Z,71.72
2016-06-16T08:44:50.272Z,72.64
2016-06-16T08:45:50.275Z,74.96
2016-06-16T08:46:50.262Z,74.58
2016-06-16T08:47:50.264Z,74.54
2016-06-16T08:48:26.456Z,72.26
2016-06-16T08:49:26.459Z,72.13
2016-06-16T08:50:26.447Z,72.32
2016-06-16T08:51:26.434Z,72.22
2016-06-16T08:52:26.405Z,70.87
2016-06-16T08:53:26.409Z,70
2016-06-16T08:54:26.397Z,71.06
2016-06-16T08:55:26.400Z,71.8
2016-06-16T08:56:26.386Z,72.38
2016-06-16T08:57:26.374Z,71.26
2016-06-16T08:58:26.345Z,70.32
2016-06-16T08:59:26.193Z,69.26
2016-06-16T09:00:26.368Z,69.2
2016-06-16T09:01:26.324Z,67.11
2016-06-16T09:02:26.171Z,66.17
2016-06-16T09:03:26.361Z,66.17
2016-06-16T09:04:26.302Z,66.5
2016-06-16T09:05:26.337Z,66.43
2016-06-16T09:06:26.292Z,66.53
2016-06-16T09:07:26.295Z,65.37
2016-06-16T09:08:26.267Z,66.17
2016-06-16T09:09:26.271Z,64.85
2016-06-16T09:10:26.258Z,64.53
2016-06-16T09:11:26.261Z,65.11
2016-06-16T09:12:26.232Z,65.56
2016-06-16T09:13:26.236Z,67.37
2016-06-16T09:14:26.223Z,66.02
2016-06-16T09:15:26.226Z,67.3
2016-06-16T09:16:26.229Z,66.56
2016-06-16T09:17:26.248Z,66.75
2016-06-16T09:18:26.204Z,66.3
2016-06-16T09:19:26.192Z,66.5
2016-06-16T09:20:26.194Z,65.79
2016-06-16T09:21:26.183Z,65.3
2016-06-16T09:22:26.169Z,66.53
2016-06-16T09:23:26.157Z,66.69
2016-06-16T09:24:26.145Z,67.76
2016-06-16T09:25:26.289Z,68.24
2016-06-16T09:26:26.135Z,67.37
2016-06-16T09:27:26.138Z,67.66
2016-06-16T09:28:26.126Z,67.27
2016-06-16T09:29:26.129Z,67.63
2016-06-16T09:30:26.116Z,68.21
2016-06-16T09:31:26.119Z,66.88
2016-06-16T09:32:26.122Z,66.6
2016-06-16T09:33:26.079Z,67.21
2016-06-16T09:34:26.144Z,67.79
2016-06-16T09:35:26.085Z,67.53
2016-06-16T09:36:26.073Z,67.21
2016-06-16T09:37:26.076Z,65.37
2016-06-16T09:38:26.109Z,63.17
2016-06-16T09:39:26.035Z,63.91
2016-06-16T09:40:26.038Z,61.61
2016-06-16T09:41:26.041Z,62.39
2016-06-16T09:42:26.028Z,62.26
2016-06-16T09:43:26.031Z,60.18
2016-06-16T09:44:26.034Z,59.18
2016-06-16T09:45:26.100Z,59.5
2016-06-16T09:46:26.010Z,57.65
2016-06-16T09:47:26.012Z,56.12
2016-06-16T09:48:25.999Z,56.72
2016-06-16T09:49:26.003Z,57.83
2016-06-16T09:50:26.005Z,58.74
2016-06-16T09:51:25.978Z,58.03
2016-06-16T09:52:25.997Z,57.86
2016-06-16T09:53:26.000Z,56.85
2016-06-16T09:54:25.830Z,56
2016-06-16T09:55:25.974Z,56.22
2016-06-16T09:56:25.962Z,56.25
2016-06-16T09:57:25.980Z,57.04
2016-06-16T09:58:25.952Z,54.83
2016-06-16T09:59:25.955Z,56.39
2016-06-16T10:00:25.974Z,54.96
2016-06-16T10:01:25.945Z,56.12
2016-06-16T10:02:25.949Z,56.51
2016-06-16T10:03:26.140Z,58.33
2016-06-16T10:04:25.940Z,58.95
2016-06-16T10:05:26.208Z,61.26
2016-06-16T10:06:25.930Z,62.98
2016-06-16T10:07:26.385Z,63.04
2016-06-16T10:08:25.921Z,63.01
2016-06-16T10:09:26.986Z,63.82
2016-06-16T10:10:25.895Z,63.69
2016-06-16T10:11:25.898Z,62.56
2016-06-16T10:12:25.901Z,62.01
2016-06-16T10:13:25.889Z,61.98
2016-06-16T10:14:25.877Z,61.79
2016-06-16T10:15:25.896Z,63.04
2016-06-16T10:16:25.866Z,63.11
2016-06-16T10:17:25.902Z,62.43
2016-06-16T10:18:25.857Z,62.37
2016-06-16T10:19:25.861Z,62.43
2016-06-16T10:20:25.848Z,63.08
2016-06-16T10:21:25.851Z,64.21
2016-06-16T10:22:25.870Z,63.37
2016-06-16T10:23:25.842Z,61.79
2016-06-16T10:24:25.673Z,61.72
2016-06-16T10:25:25.832Z,60.65
2016-06-16T10:26:25.819Z,61.24
2016-06-16T10:27:25.823Z,61.17
2016-06-16T10:28:25.810Z,62.4
2016-06-16T10:29:25.798Z,63.04
2016-06-16T10:30:25.785Z,62.82
2016-06-16T10:31:25.788Z,62.56
2016-06-16T10:32:25.776Z,62.59
2016-06-16T10:33:25.763Z,62.43
2016-06-16T10:34:25.750Z,63.31
2016-06-16T10:35:25.613Z,63.34
2016-06-16T10:36:25.757Z,63.34
2016-06-16T10:37:25.760Z,63.31
2016-06-16T10:38:25.731Z,65.08
2016-06-16T10:39:25.734Z,64.79
2016-06-16T10:40:25.723Z,64.01
2016-06-16T10:41:25.568Z,63.66
2016-06-16T10:42:25.712Z,63.21
2016-06-16T10:43:25.543Z,62.46
2016-06-16T10:44:25.703Z,61.79
2016-06-16T10:45:25.706Z,62.3
2016-06-16T10:46:25.694Z,62.4
2016-06-16T10:47:25.666Z,61.91
2016-06-16T10:48:25.669Z,61.1
2016-06-16T10:49:25.656Z,59.22
2016-06-16T10:50:25.706Z,58.08
2016-06-16T10:51:25.646Z,57.6
2016-06-16T10:52:25.634Z,57.85
2016-06-16T10:53:25.668Z,57.97
2016-06-16T10:54:25.641Z,55.86
2016-06-16T10:55:25.627Z,55.35
2016-06-16T10:56:25.615Z,54.99
2016-06-16T10:57:25.618Z,55.47
2016-06-16T10:58:25.621Z,56.81
2016-06-16T10:59:25.592Z,58.44
2016-06-16T11:00:25.577Z,58.41
2016-06-16T11:01:25.581Z,58.97
2016-06-16T11:02:25.896Z,58.97
2016-06-16T11:03:25.571Z,59.97
2016-06-16T11:04:25.559Z,60.75
2016-06-16T11:07:47.212Z,61.82
2016-06-16T11:09:31.249Z,61.91
2016-06-16T11:09:47.202Z,62.17
2016-06-16T11:10:47.127Z,61.95
2016-06-16T11:11:47.177Z,61.79
2016-06-16T11:13:31.230Z,62.53
2016-06-16T11:13:47.215Z,62.21
2016-06-16T11:14:47.155Z,62.01
2016-06-16T11:15:46.986Z,62.11
2016-06-16T11:16:47.145Z,61.92
2016-06-16T11:17:47.148Z,62.01
2016-06-16T11:18:47.136Z,61.63
2016-06-16T11:19:47.123Z,61.92
2016-06-16T11:20:47.127Z,62.59
2016-06-16T11:21:47.115Z,63.37
2016-06-16T11:22:47.102Z,62.63
2016-06-16T11:23:47.089Z,60.91
2016-06-16T11:24:46.936Z,61.21
2016-06-16T11:25:47.064Z,61.59
2016-06-16T11:26:47.082Z,61.72
2016-06-16T11:27:47.070Z,61.85
2016-06-16T11:28:47.073Z,62.79
2016-06-16T11:29:47.060Z,62.95
2016-06-16T11:30:47.048Z,63.27
2016-06-16T11:31:46.879Z,64.3
2016-06-16T11:32:47.023Z,65.24
2016-06-16T11:33:47.027Z,65.24
2016-06-16T11:34:47.013Z,65.4
2016-06-16T11:35:47.033Z,65.11
2016-06-16T11:36:47.004Z,64.17
2016-06-16T11:37:46.834Z,63.34
2016-06-16T11:38:46.978Z,62.69
2016-06-16T11:39:46.966Z,63.4
2016-06-16T11:40:46.969Z,63.89
2016-06-16T11:41:46.957Z,64.62
2016-06-16T11:42:46.960Z,62.49
2016-06-16T11:43:46.947Z,62.43
2016-06-16T11:44:46.950Z,62.36
2016-06-16T11:45:46.922Z,61.16
2016-06-16T11:46:46.941Z,61.09
2016-06-16T11:47:46.912Z,61.15
2016-06-16T11:48:46.931Z,58.62
2016-06-16T11:49:46.903Z,57.95
2016-06-16T11:50:46.906Z,57.36
2016-06-16T11:51:46.894Z,58.93
2016-06-16T11:52:46.897Z,60.16
2016-06-16T11:53:46.900Z,60.91
2016-06-16T11:54:46.887Z,60.52
2016-06-16T11:55:46.875Z,61.36
2016-06-16T11:56:46.706Z,59.84
2016-06-16T11:57:46.849Z,59.91
2016-06-16T11:58:46.838Z,61.3
2016-06-16T11:59:46.841Z,61.3
2016-06-16T12:00:46.827Z,60.75
2016-06-16T12:01:46.816Z,60.42
2016-06-16T12:02:46.819Z,59.77
2016-06-16T12:03:46.805Z,57.01
2016-06-16T12:04:46.825Z,57.6
2016-06-16T12:05:46.796Z,57.6
2016-06-16T12:06:46.799Z,59.34
2016-06-16T12:07:46.630Z,59.25
2016-06-16T12:08:46.805Z,57.96
2016-06-16T12:09:46.761Z,58.64
2016-06-16T12:10:46.764Z,58.34
2016-06-16T12:11:46.767Z,58.97
2016-06-16T12:12:46.770Z,58.97
2016-06-16T12:13:46.758Z,58.48
2016-06-16T12:14:46.731Z,59.16
2016-06-16T12:15:46.749Z,60
2016-06-16T12:16:46.736Z,60.85
2016-06-16T12:17:46.740Z,61.14
2016-06-16T12:18:46.711Z,61.4
2016-06-16T12:19:46.699Z,62.07
2016-06-16T12:20:46.592Z,62.07
2016-06-16T12:21:46.705Z,61.69
2016-06-16T12:22:46.692Z,61.43
2016-06-16T12:23:46.679Z,61.3
2016-06-16T12:24:46.512Z,60.85
2016-06-16T12:25:46.670Z,61.07
2016-06-16T12:26:46.657Z,60.71
2016-06-16T12:27:46.660Z,60.61
2016-06-16T12:28:46.649Z,60.87
2016-06-16T12:29:46.636Z,59.31
2016-06-16T12:30:46.639Z,59.58
2016-06-16T12:31:46.626Z,59.28
2016-06-16T12:32:46.629Z,60.06
2016-06-16T12:33:46.632Z,60.19
2016-06-16T12:34:46.620Z,59.51
2016-06-16T12:35:46.607Z,59.92
2016-06-16T12:36:46.610Z,59.28
2016-06-16T12:37:46.598Z,58.93
2016-06-16T12:38:46.586Z,59.03
2016-06-16T12:39:46.588Z,60.09
2016-06-16T12:40:46.561Z,60.71
2016-06-16T12:41:46.578Z,60.16
2016-06-16T12:42:46.566Z,59.67
2016-06-16T12:43:46.554Z,60.23
2016-06-16T12:44:46.540Z,61.26
2016-06-16T12:45:46.404Z,62.4
2016-06-16T12:46:46.532Z,62.4
2016-06-16T12:47:46.519Z,62.69
2016-06-16T12:48:46.522Z,63.49
2016-06-16T12:49:46.509Z,63.98
2016-06-16T12:50:46.512Z,64.34
2016-06-16T12:51:46.501Z,64.79
2016-06-16T12:52:46.519Z,65.17
2016-06-16T12:58:53.397Z,62.88
2016-06-16T12:59:53.228Z,63.66
2016-06-16T13:00:53.371Z,62.24
2016-06-16T13:01:53.375Z,62.75
2016-06-16T13:02:53.378Z,61.3
2016-06-16T13:03:53.350Z,62.17
2016-06-16T13:04:53.369Z,63.31
2016-06-16T13:05:53.355Z,65.27
2016-06-16T13:06:53.625Z,65.92
2016-06-16T13:07:53.315Z,65.95
2016-06-16T13:08:53.443Z,64.89
2016-06-16T13:09:53.337Z,64.24
2016-06-16T13:10:52.810Z,64.82
2016-06-16T13:11:53.297Z,63.98
2016-06-16T13:12:53.534Z,63.21
2016-06-16T13:13:53.116Z,63.69